Time;durP1;ratioP1;P1;durP2;ratioP2;P2;SDS_P1;SDS_P2;PMS_P1;PMS_P2;Temp;Humidity;BMP_temperature;BMP_pressure;BME280_temperature;BME280_humidity;BME280_pressure;Samples;Min_cycle;Max_cycle;Signal;HPM_P1;HPM_P2
2021/06/08 18:19:10;;;;;;;10.23;5.03;;;;;;;;;;5142298;27;20356;-49
2021/06/08 18:21:38;;;;;;;14.27;5.70;;;25.70;99.40;;;;;;5129898;28;20035;-47
2021/06/08 18:24:05;;;;;;;9.13;4.80;;;;;;;;;;5127584;28;20025;-45
2021/06/08 18:26:32;;;;;;;11.65;5.40;;;25.70;96.60;;;;;;5073825;28;20035;-53
2021/06/08 18:28:58;;;;;;;19.40;6.07;;;25.60;94.20;;;;;;5124934;28;20035;-48
2021/06/08 18:31:23;;;;;;;14.27;5.40;;;25.60;93.90;;;;;;5109908;28;20024;-49
2021/06/08 18:33:51;;;;;;;12.55;5.43;;;25.60;94.00;;;;;;5092709;28;20545;-48
2021/06/08 18:36:17;;;;;;;13.70;5.82;;;25.50;94.10;;;;;;5114054;28;20096;-48
2021/06/08 18:38:43;;;;;;;24.55;6.15;;;25.50;94.50;;;;;;5130208;28;20450;-49
2021/06/08 18:41:10;;;;;;;12.35;5.28;;;25.50;94.20;;;;;;5128140;28;20508;-48
2021/06/08 18:43:40;;;;;;;8.10;4.93;;;25.50;94.10;;;;;;5125428;28;20068;-50
2021/06/08 18:46:07;;;;;;;13.02;5.35;;;25.50;94.10;;;;;;5127040;27;20023;-48
2021/06/08 18:48:33;;;;;;;8.25;4.95;;;25.40;94.10;;;;;;5126223;27;20033;-48
2021/06/08 18:50:59;;;;;;;7.70;5.53;;;25.30;94.20;;;;;;5076058;28;20040;-47
2021/06/08 18:53:25;;;;;;;11.88;5.28;;;25.20;94.40;;;;;;5109969;28;20059;-47
2021/06/08 18:55:51;;;;;;;9.25;5.18;;;25.20;94.40;;;;;;5126407;28;20030;-47
2021/06/08 18:58:19;;;;;;;12.82;6.15;;;25.20;94.50;;;;;;5127479;27;20037;-48
2021/06/08 19:00:45;;;;;;;11.93;5.50;;;25.10;94.40;;;;;;5125488;28;20427;-48
2021/06/08 19:03:12;;;;;;;9.90;5.78;;;25.00;94.40;;;;;;5129247;28;20056;-48
2021/06/08 19:05:39;;;;;;;17.98;5.35;;;25.00;94.30;;;;;;5126508;28;20109;-49
2021/06/08 19:08:05;;;;;;;9.60;4.95;;;24.90;94.30;;;;;;5127767;27;20110;-51
2021/06/08 19:10:31;;;;;;;12.38;5.53;;;24.90;94.40;;;;;;5128732;28;20484;-49
2021/06/08 19:12:57;;;;;;;19.48;6.72;;;24.80;94.10;;;;;;5090078;28;20036;-50
2021/06/08 19:15:23;;;;;;;6.80;5.38;;;24.80;94.50;;;;;;5125693;28;20038;-50
2021/06/08 19:17:50;;;;;;;14.77;6.47;;;24.70;94.60;;;;;;5127333;28;20047;-46
2021/06/08 19:20:22;;;;;;;16.02;6.65;;;24.60;94.80;;;;;;5117703;28;20028;-48
2021/06/08 19:22:48;;;;;;;8.02;5.88;;;24.60;94.80;;;;;;5122456;28;20128;-47
2021/06/08 19:25:14;;;;;;;12.90;5.93;;;24.60;94.90;;;;;;5126298;28;20040;-45
2021/06/08 19:27:40;;;;;;;15.07;7.50;;;24.60;94.80;;;;;;5128681;27;20031;-43
2021/06/08 19:30:07;;;;;;;12.68;5.97;;;24.60;95.30;;;;;;5114779;28;20213;-46
2021/06/08 19:32:33;;;;;;;8.73;5.45;;;24.60;95.10;;;;;;5095447;28;20031;-44
2021/06/08 19:35:01;;;;;;;11.73;5.63;;;24.50;95.10;;;;;;5115003;28;20028;-46
2021/06/08 19:37:30;;;;;;;9.38;5.63;;;24.40;95.10;;;;;;5114914;28;20098;-48
2021/06/08 19:39:57;;;;;;;10.38;6.15;;;24.40;95.50;;;;;;5111708;28;20288;-49
2021/06/08 19:42:23;;;;;;;11.82;5.40;;;24.40;95.20;;;;;;5109435;28;20028;-47
2021/06/08 19:44:49;;;;;;;9.73;4.93;;;24.40;95.40;;;;;;5112355;28;20020;-48
2021/06/08 19:47:15;;;;;;;7.93;4.88;;;24.40;95.50;;;;;;5114636;28;20032;-46
2021/06/08 19:49:42;;;;;;;14.95;6.22;;;24.30;95.50;;;;;;5061595;28;20084;-47
2021/06/08 19:52:09;;;;;;;8.43;5.70;;;24.20;95.70;;;;;;5095657;28;20031;-43
2021/06/08 19:54:35;;;;;;;11.00;6.00;;;24.30;95.80;;;;;;5092798;28;20063;-44
2021/06/08 19:57:01;;;;;;;13.00;5.70;;;24.20;95.70;;;;;;5111163;28;20111;-47
2021/06/08 19:59:27;;;;;;;6.78;4.60;;;24.20;95.90;;;;;;5114478;28;20119;-48
2021/06/08 20:01:53;;;;;;;8.73;5.00;;;24.20;95.60;;;;;;5112261;28;20028;-51
2021/06/08 20:04:19;;;;;;;5.47;4.80;;;24.20;95.50;;;;;;5094642;28;20027;-50
2021/06/08 20:06:45;;;;;;;6.30;4.40;;;24.20;95.60;;;;;;5102801;28;20684;-49
2021/06/08 20:09:11;;;;;;;7.32;4.95;;;24.10;95.70;;;;;;5104947;28;20032;-48
2021/06/08 20:11:42;;;;;;;11.27;5.38;;;24.10;95.80;;;;;;5105988;28;20140;-46
2021/06/08 20:14:08;;;;;;;9.48;5.65;;;24.10;95.90;;;;;;5105829;28;20354;-49
2021/06/08 20:16:34;;;;;;;7.85;4.90;;;24.00;95.80;;;;;;5100781;28;20028;-49
2021/06/08 20:19:00;;;;;;;6.22;4.60;;;24.10;96.00;;;;;;5114088;28;20058;-49
2021/06/08 20:21:27;;;;;;;8.82;4.30;;;24.00;96.00;;;;;;5114746;28;20035;-49
2021/06/08 20:23:53;;;;;;;6.30;5.05;;;23.90;96.20;;;;;;5094370;28;20043;-49
2021/06/08 20:26:18;;;;;;;9.95;5.20;;;23.90;96.50;;;;;;5114573;28;20382;-49
2021/06/08 20:28:44;;;;;;;8.05;5.78;;;23.80;96.60;;;;;;5112332;28;20116;-48
2021/06/08 20:31:11;;;;;;;8.70;5.10;;;23.70;96.70;;;;;;5114588;28;20058;-48
2021/06/08 20:33:37;;;;;;;11.93;5.65;;;23.70;96.70;;;;;;5114426;28;20375;-48
2021/06/08 20:36:03;;;;;;;7.57;5.43;;;23.80;96.70;;;;;;5112257;28;20105;-49
2021/06/08 20:38:29;;;;;;;12.27;6.05;;;23.80;96.70;;;;;;5061472;28;20197;-49
2021/06/08 20:40:55;;;;;;;7.60;5.72;;;23.70;96.80;;;;;;5113431;28;20118;-48
2021/06/08 20:43:21;;;;;;;11.18;6.10;;;23.60;96.90;;;;;;5114023;28;20477;-48
2021/06/08 20:45:47;;;;;;;9.57;6.35;;;23.50;97.00;;;;;;5112122;28;20047;-48
2021/06/08 20:48:14;;;;;;;8.65;5.63;;;23.40;97.30;;;;;;5114233;28;20027;-49
2021/06/08 20:50:40;;;;;;;11.90;5.65;;;23.40;97.30;;;;;;5113819;28;20023;-49
2021/06/08 20:53:06;;;;;;;7.20;5.35;;;23.30;97.40;;;;;;5113984;28;20492;-49
2021/06/08 20:55:33;;;;;;;10.18;5.95;;;23.20;99.90;;;;;;5113884;28;20102;-50
2021/06/08 20:57:59;;;;;;;7.88;5.95;;;23.20;97.50;;;;;;5113418;28;20035;-48
2021/06/08 21:00:27;;;;;;;7.20;5.53;;;23.10;97.30;;;;;;5113840;28;20031;-49
2021/06/08 21:02:53;;;;;;;7.63;5.72;;;23.00;97.60;;;;;;5111277;28;20046;-48
2021/06/08 21:05:19;;;;;;;11.07;6.15;;;23.00;97.40;;;;;;5111405;28;20043;-48
2021/06/08 21:07:45;;;;;;;8.18;5.35;;;22.80;97.40;;;;;;5113446;28;20063;-48
2021/06/08 21:10:11;;;;;;;8.40;5.78;;;22.80;97.40;;;;;;5094061;28;20067;-48
2021/06/08 21:12:38;;;;;;;13.45;6.40;;;22.90;97.60;;;;;;5114087;28;20106;-48
2021/06/08 21:15:05;;;;;;;13.65;5.57;;;;;;;;;;5114713;28;20119;-48
2021/06/08 21:17:31;;;;;;;8.80;5.60;;;22.70;97.40;;;;;;5091785;28;20051;-49
2021/06/08 21:19:56;;;;;;;6.82;4.97;;;22.60;97.50;;;;;;5067123;28;20043;-49
2021/06/08 21:22:23;;;;;;;5.40;4.55;;;22.50;97.50;;;;;;5102147;28;20031;-48
2021/06/08 21:24:50;;;;;;;9.32;5.40;;;22.50;97.50;;;;;;5114508;28;20035;-48
2021/06/08 21:27:16;;;;;;;7.40;5.30;;;22.60;97.90;;;;;;5104031;28;20187;-48
2021/06/08 21:29:43;;;;;;;5.60;5.10;;;22.50;99.90;;;;;;5094107;28;20040;-49
2021/06/08 21:32:09;;;;;;;8.50;5.55;;;22.40;97.80;;;;;;5088292;28;20039;-48
2021/06/08 21:34:34;;;;;;;8.10;5.15;;;22.40;97.90;;;;;;5113087;28;20496;-48
2021/06/08 21:37:01;;;;;;;6.57;5.25;;;22.30;97.90;;;;;;5114297;28;20436;-48
2021/06/08 21:39:27;;;;;;;11.73;5.65;;;22.30;98.20;;;;;;5114881;28;20053;-48
2021/06/08 21:41:53;;;;;;;6.60;5.20;;;22.20;98.10;;;;;;5112702;28;20484;-48
2021/06/08 21:44:19;;;;;;;10.13;5.43;;;22.30;99.90;;;;;;5027345;28;20040;-48
2021/06/08 21:46:45;;;;;;;7.15;5.55;;;22.30;99.90;;;;;;5096435;28;20109;-49
2021/06/08 21:49:11;;;;;;;8.55;5.93;;;22.30;99.90;;;;;;5111994;28;20470;-47
2021/06/08 21:51:37;;;;;;;8.38;6.22;;;22.30;99.90;;;;;;5094955;28;20730;-45
2021/06/08 21:54:03;;;;;;;8.85;6.40;;;22.30;99.70;;;;;;5095110;28;20118;-48
2021/06/08 21:56:29;;;;;;;9.25;5.85;;;22.20;98.30;;;;;;5077805;28;20059;-43
2021/06/08 21:58:55;;;;;;;8.82;5.35;;;22.10;98.30;;;;;;5114054;28;20035;-47
2021/06/08 22:01:22;;;;;;;11.90;6.05;;;22.00;98.30;;;;;;5114448;28;20036;-47
2021/06/08 22:03:48;;;;;;;9.98;5.90;;;22.00;98.30;;;;;;5111537;28;20371;-45
2021/06/08 22:06:14;;;;;;;7.25;5.40;;;22.00;98.40;;;;;;5114128;28;20058;-48
2021/06/08 22:08:40;;;;;;;6.60;5.93;;;22.00;98.30;;;;;;5114045;28;20040;-48
2021/06/08 22:11:06;;;;;;;7.63;5.72;;;22.00;98.20;;;;;;5113630;28;20473;-48
2021/06/08 22:13:32;;;;;;;10.75;5.85;;;22.10;98.30;;;;;;5114278;28;20485;-49
2021/06/08 22:15:58;;;;;;;7.85;5.70;;;22.10;98.30;;;;;;5113959;28;20477;-48
2021/06/08 22:18:25;;;;;;;8.88;5.70;;;22.10;98.30;;;;;;5108607;28;20162;-49
2021/06/08 22:20:51;;;;;;;9.75;5.53;;;22.10;98.20;;;;;;5109041;28;20482;-47
2021/06/08 22:23:18;;;;;;;13.82;6.35;;;22.10;98.30;;;;;;5109616;28;20534;-47
2021/06/08 22:25:44;;;;;;;8.80;5.93;;;22.10;98.40;;;;;;5099035;28;20036;-47
2021/06/08 22:28:10;;;;;;;9.23;5.60;;;22.10;98.40;;;;;;5113959;28;20080;-44
2021/06/08 22:30:36;;;;;;;10.02;5.78;;;22.00;98.60;;;;;;5094936;28;20032;-44
2021/06/08 22:33:03;;;;;;;9.52;5.60;;;22.00;98.70;;;;;;5093016;28;20063;-47
2021/06/08 22:35:30;;;;;;;8.45;5.60;;;22.00;99.90;;;;;;5074532;28;20040;-43
2021/06/08 22:37:56;;;;;;;7.00;5.85;;;22.00;99.00;;;;;;5093249;28;20466;-46
2021/06/08 22:40:25;;;;;;;7.50;5.70;;;21.90;98.90;;;;;;5074286;28;20043;-48
2021/06/08 22:42:52;;;;;;;8.93;5.82;;;21.90;99.10;;;;;;5093190;28;20409;-45
2021/06/08 22:45:19;;;;;;;7.85;5.97;;;21.80;99.10;;;;;;5091378;28;20036;-45
2021/06/08 22:47:45;;;;;;;9.18;6.07;;;21.80;99.20;;;;;;5074191;28;20375;-46
2021/06/08 22:50:13;;;;;;;6.75;5.28;;;21.80;99.30;;;;;;5057769;28;20040;-47
2021/06/08 22:52:40;;;;;;;11.00;6.03;;;21.70;99.30;;;;;;5093303;28;20043;-47
2021/06/08 22:55:12;;;;;;;9.77;6.22;;;21.70;99.50;;;;;;5093160;28;20028;-46
2021/06/08 22:57:38;;;;;;;8.90;6.80;;;21.70;99.60;;;;;;5074436;28;20051;-47
2021/06/08 23:00:07;;;;;;;11.32;6.68;;;21.60;99.50;;;;;;5093114;28;20028;-45
2021/06/08 23:02:33;;;;;;;9.98;6.28;;;21.60;99.70;;;;;;5040605;28;20044;-45
2021/06/08 23:04:58;;;;;;;9.50;6.13;;;21.60;99.70;;;;;;5095684;28;20371;-46
2021/06/08 23:07:24;;;;;;;10.27;6.97;;;21.50;99.70;;;;;;5097254;28;20081;-47
2021/06/08 23:09:50;;;;;;;9.82;6.72;;;21.50;99.80;;;;;;5100778;28;20037;-51
2021/06/08 23:12:16;;;;;;;11.25;6.95;;;21.50;99.90;;;;;;5086400;28;20040;-47
2021/06/08 23:14:42;;;;;;;11.77;7.30;;;21.60;99.90;;;;;;5106106;28;20491;-48
2021/06/08 23:17:07;;;;;;;8.38;7.13;;;21.30;99.90;;;;;;5108561;28;20039;-48
2021/06/08 23:19:33;;;;;;;9.45;6.70;;;21.20;99.90;;;;;;5114523;28;20044;-45
2021/06/08 23:21:59;;;;;;;10.70;8.32;;;21.30;99.90;;;;;;5110043;28;20035;-45
2021/06/08 23:24:25;;;;;;;9.88;7.55;;;21.10;99.90;;;;;;5077838;28;20197;-46
2021/06/08 23:26:54;;;;;;;9.65;7.32;;;21.20;99.90;;;;;;5112848;28;20024;-46
2021/06/08 23:29:20;;;;;;;10.00;7.03;;;21.20;99.90;;;;;;5098328;28;20043;-47
2021/06/08 23:31:46;;;;;;;10.73;7.22;;;21.20;99.90;;;;;;5097407;28;20559;-47
2021/06/08 23:34:12;;;;;;;12.30;7.30;;;21.20;99.90;;;;;;5116183;28;20020;-47
2021/06/08 23:36:37;;;;;;;10.73;7.03;;;21.10;99.90;;;;;;5114776;28;20032;-45
2021/06/08 23:39:05;;;;;;;9.60;7.55;;;21.00;99.90;;;;;;5111470;28;20040;-47
2021/06/08 23:41:31;;;;;;;10.75;7.13;;;21.10;99.90;;;;;;5105194;28;20534;-44
2021/06/08 23:44:00;;;;;;;13.95;7.22;;;;;;;;;;5096180;28;20032;-45
2021/06/08 23:46:26;;;;;;;8.73;6.63;;;20.90;99.90;;;;;;5096259;28;20028;-45
2021/06/08 23:48:52;;;;;;;11.45;7.78;;;;;;;;;;5060644;28;20043;-45
2021/06/08 23:51:17;;;;;;;8.65;7.75;;;20.70;99.90;;;;;;5096344;28;20085;-45
2021/06/08 23:53:43;;;;;;;10.07;8.23;;;20.70;99.90;;;;;;5096039;28;20036;-45
2021/06/08 23:56:10;;;;;;;11.07;7.45;;;20.70;99.90;;;;;;5095827;28;20035;-45
2021/06/08 23:58:36;;;;;;;15.25;7.97;;;20.70;99.90;;;;;;5095981;28;20040;-45
